Portland, Oregon
Traffic Map
Current Weather Conditions
Portland, Oregon
Broken Clouds
Broken Clouds
44°
Feels Like: 40°
Wind Chill: 40° Ceiling: 5500
Heat Index: 44° Visibility: 10mi
Dew Point: 43° Wind: 8mph
Humidity: 96% Direction: 110° (ESE)
Pressure: 29.92in Gusts: 0mph
Raw Report DataKPDX 191153Z 11007KT 10SM FEW020 BKN055 BKN080 07/06 A2992 RMK AO2 SLP130 60013 70032 T00670061 10100 20061 51013
Traffic Incident Summary
Active as of:
Severity:
Category:
InformationThere was an issue retrieving the traffic information for this location. Please try a different location or try again shortly.
Advertisements
Track Severe Weather on mobile